sensor_id;sensor_type;location;lat;lon;timestamp;P1;durP1;ratioP1;P2;durP2;ratioP2
76708;SDS011;74360;44.410;0.216;2024-01-25T00:04:18;63.67;;;22.70;;
76708;SDS011;74360;44.410;0.216;2024-01-25T00:09:51;45.77;;;19.60;;
76708;SDS011;74360;44.410;0.216;2024-01-25T00:15:23;67.80;;;21.73;;
76708;SDS011;74360;44.410;0.216;2024-01-25T00:20:56;84.77;;;25.60;;
76708;SDS011;74360;44.410;0.216;2024-01-25T00:26:29;54.30;;;23.07;;
76708;SDS011;74360;44.410;0.216;2024-01-25T00:32:01;80.27;;;25.43;;
76708;SDS011;74360;44.410;0.216;2024-01-25T00:37:34;49.77;;;23.23;;
76708;SDS011;74360;44.410;0.216;2024-01-25T00:43:07;82.00;;;25.23;;
76708;SDS011;74360;44.410;0.216;2024-01-25T00:48:40;102.20;;;26.13;;
76708;SDS011;74360;44.410;0.216;2024-01-25T00:54:13;48.47;;;23.57;;
76708;SDS011;74360;44.410;0.216;2024-01-25T00:59:45;77.43;;;23.97;;
76708;SDS011;74360;44.410;0.216;2024-01-25T01:05:18;58.83;;;24.93;;
76708;SDS011;74360;44.410;0.216;2024-01-25T01:10:49;60.23;;;24.50;;
76708;SDS011;74360;44.410;0.216;2024-01-25T01:16:22;39.70;;;21.80;;
76708;SDS011;74360;44.410;0.216;2024-01-25T01:21:54;37.33;;;21.43;;
76708;SDS011;74360;44.410;0.216;2024-01-25T01:27:24;34.17;;;22.10;;
76708;SDS011;74360;44.410;0.216;2024-01-25T01:32:59;31.90;;;20.53;;
76708;SDS011;74360;44.410;0.216;2024-01-25T01:38:32;30.20;;;20.10;;
76708;SDS011;74360;44.410;0.216;2024-01-25T01:44:04;36.37;;;20.90;;
76708;SDS011;74360;44.410;0.216;2024-01-25T01:49:38;36.73;;;20.10;;
76708;SDS011;74360;44.410;0.216;2024-01-25T01:55:11;46.90;;;21.53;;
76708;SDS011;74360;44.410;0.216;2024-01-25T02:00:44;52.03;;;20.80;;
76708;SDS011;74360;44.410;0.216;2024-01-25T02:06:17;40.67;;;21.53;;
76708;SDS011;74360;44.410;0.216;2024-01-25T02:17:21;37.30;;;21.43;;
76708;SDS011;74360;44.410;0.216;2024-01-25T02:28:28;31.93;;;18.83;;
76708;SDS011;74360;44.410;0.216;2024-01-25T02:34:00;36.57;;;18.90;;
76708;SDS011;74360;44.410;0.216;2024-01-25T02:39:35;35.23;;;17.93;;
76708;SDS011;74360;44.410;0.216;2024-01-25T02:45:07;59.53;;;25.10;;
76708;SDS011;74360;44.410;0.216;2024-01-25T02:50:39;48.03;;;22.70;;
76708;SDS011;74360;44.410;0.216;2024-01-25T02:56:12;48.50;;;23.83;;
76708;SDS011;74360;44.410;0.216;2024-01-25T03:01:46;48.27;;;22.93;;
76708;SDS011;74360;44.410;0.216;2024-01-25T03:07:16;46.23;;;22.13;;
76708;SDS011;74360;44.410;0.216;2024-01-25T03:12:49;39.80;;;21.20;;
76708;SDS011;74360;44.410;0.216;2024-01-25T03:18:21;43.70;;;19.13;;
76708;SDS011;74360;44.410;0.216;2024-01-25T03:23:53;47.57;;;18.00;;
76708;SDS011;74360;44.410;0.216;2024-01-25T03:29:25;26.93;;;13.23;;
76708;SDS011;74360;44.410;0.216;2024-01-25T03:34:58;37.37;;;17.33;;
76708;SDS011;74360;44.410;0.216;2024-01-25T03:40:29;32.07;;;15.07;;
76708;SDS011;74360;44.410;0.216;2024-01-25T03:51:33;46.47;;;16.97;;
76708;SDS011;74360;44.410;0.216;2024-01-25T03:57:08;41.70;;;16.63;;
76708;SDS011;74360;44.410;0.216;2024-01-25T04:02:40;50.27;;;17.33;;
76708;SDS011;74360;44.410;0.216;2024-01-25T04:13:44;51.07;;;14.57;;
76708;SDS011;74360;44.410;0.216;2024-01-25T04:19:16;37.77;;;14.50;;
76708;SDS011;74360;44.410;0.216;2024-01-25T04:24:50;42.53;;;12.53;;
76708;SDS011;74360;44.410;0.216;2024-01-25T04:30:23;46.30;;;13.40;;
76708;SDS011;74360;44.410;0.216;2024-01-25T04:35:54;37.43;;;13.20;;
76708;SDS011;74360;44.410;0.216;2024-01-25T04:41:27;37.80;;;10.73;;
76708;SDS011;74360;44.410;0.216;2024-01-25T04:46:59;37.90;;;12.60;;
76708;SDS011;74360;44.410;0.216;2024-01-25T04:52:32;41.37;;;12.77;;
76708;SDS011;74360;44.410;0.216;2024-01-25T04:58:06;50.73;;;13.53;;
76708;SDS011;74360;44.410;0.216;2024-01-25T05:03:39;45.63;;;12.83;;
76708;SDS011;74360;44.410;0.216;2024-01-25T05:09:12;39.10;;;10.83;;
76708;SDS011;74360;44.410;0.216;2024-01-25T05:14:44;52.87;;;15.27;;
76708;SDS011;74360;44.410;0.216;2024-01-25T05:20:18;59.57;;;13.90;;
76708;SDS011;74360;44.410;0.216;2024-01-25T05:25:48;49.50;;;13.50;;
76708;SDS011;74360;44.410;0.216;2024-01-25T05:31:21;37.37;;;12.73;;
76708;SDS011;74360;44.410;0.216;2024-01-25T05:36:54;36.77;;;13.80;;
76708;SDS011;74360;44.410;0.216;2024-01-25T05:42:27;35.73;;;13.60;;
76708;SDS011;74360;44.410;0.216;2024-01-25T05:48:00;60.30;;;16.50;;
76708;SDS011;74360;44.410;0.216;2024-01-25T05:53:32;59.80;;;14.33;;
76708;SDS011;74360;44.410;0.216;2024-01-25T05:59:05;65.70;;;13.97;;
76708;SDS011;74360;44.410;0.216;2024-01-25T06:04:38;40.63;;;14.67;;
76708;SDS011;74360;44.410;0.216;2024-01-25T06:10:10;46.27;;;15.70;;
76708;SDS011;74360;44.410;0.216;2024-01-25T06:15:43;61.07;;;21.70;;
76708;SDS011;74360;44.410;0.216;2024-01-25T06:21:16;65.63;;;20.13;;
76708;SDS011;74360;44.410;0.216;2024-01-25T06:26:49;44.60;;;15.00;;
76708;SDS011;74360;44.410;0.216;2024-01-25T06:32:21;60.73;;;20.33;;
76708;SDS011;74360;44.410;0.216;2024-01-25T06:37:54;74.77;;;19.60;;
76708;SDS011;74360;44.410;0.216;2024-01-25T06:43:27;85.33;;;27.53;;
76708;SDS011;74360;44.410;0.216;2024-01-25T06:49:00;118.20;;;23.43;;
76708;SDS011;74360;44.410;0.216;2024-01-25T06:54:33;68.63;;;21.53;;
76708;SDS011;74360;44.410;0.216;2024-01-25T07:00:08;77.07;;;22.70;;
76708;SDS011;74360;44.410;0.216;2024-01-25T07:05:40;49.13;;;15.37;;
76708;SDS011;74360;44.410;0.216;2024-01-25T07:11:12;64.37;;;16.77;;
76708;SDS011;74360;44.410;0.216;2024-01-25T07:16:46;62.43;;;13.27;;
76708;SDS011;74360;44.410;0.216;2024-01-25T07:22:19;51.33;;;11.80;;
76708;SDS011;74360;44.410;0.216;2024-01-25T07:27:50;47.50;;;11.67;;
76708;SDS011;74360;44.410;0.216;2024-01-25T07:33:22;57.67;;;12.10;;
76708;SDS011;74360;44.410;0.216;2024-01-25T07:38:56;72.70;;;13.67;;
76708;SDS011;74360;44.410;0.216;2024-01-25T07:44:27;47.27;;;9.03;;
76708;SDS011;74360;44.410;0.216;2024-01-25T07:50:00;71.77;;;11.80;;
76708;SDS011;74360;44.410;0.216;2024-01-25T08:01:05;33.03;;;7.77;;
76708;SDS011;74360;44.410;0.216;2024-01-25T08:06:36;36.23;;;9.50;;
76708;SDS011;74360;44.410;0.216;2024-01-25T08:12:09;40.23;;;14.73;;
76708;SDS011;74360;44.410;0.216;2024-01-25T08:17:42;46.43;;;16.73;;
76708;SDS011;74360;44.410;0.216;2024-01-25T08:23:15;60.57;;;20.00;;
76708;SDS011;74360;44.410;0.216;2024-01-25T08:28:47;38.73;;;12.33;;
76708;SDS011;74360;44.410;0.216;2024-01-25T08:34:19;39.90;;;12.27;;
76708;SDS011;74360;44.410;0.216;2024-01-25T08:39:53;28.70;;;7.17;;
76708;SDS011;74360;44.410;0.216;2024-01-25T08:45:25;49.13;;;8.77;;
76708;SDS011;74360;44.410;0.216;2024-01-25T08:50:58;50.30;;;12.67;;
76708;SDS011;74360;44.410;0.216;2024-01-25T09:02:04;22.83;;;9.27;;
76708;SDS011;74360;44.410;0.216;2024-01-25T09:07:37;29.73;;;7.23;;
76708;SDS011;74360;44.410;0.216;2024-01-25T09:13:08;36.33;;;11.47;;
76708;SDS011;74360;44.410;0.216;2024-01-25T09:18:41;52.80;;;13.27;;
76708;SDS011;74360;44.410;0.216;2024-01-25T09:24:14;38.63;;;10.57;;
76708;SDS011;74360;44.410;0.216;2024-01-25T09:29:46;41.43;;;11.70;;
76708;SDS011;74360;44.410;0.216;2024-01-25T09:35:20;27.23;;;10.10;;
76708;SDS011;74360;44.410;0.216;2024-01-25T09:40:53;27.60;;;10.00;;
76708;SDS011;74360;44.410;0.216;2024-01-25T09:46:25;24.73;;;9.37;;
76708;SDS011;74360;44.410;0.216;2024-01-25T09:51:58;14.67;;;6.10;;
76708;SDS011;74360;44.410;0.216;2024-01-25T09:57:30;12.83;;;6.50;;
76708;SDS011;74360;44.410;0.216;2024-01-25T10:03:04;16.57;;;7.87;;
76708;SDS011;74360;44.410;0.216;2024-01-25T10:08:38;12.83;;;7.00;;
76708;SDS011;74360;44.410;0.216;2024-01-25T10:14:10;13.60;;;7.53;;
76708;SDS011;74360;44.410;0.216;2024-01-25T10:19:43;12.50;;;7.27;;
76708;SDS011;74360;44.410;0.216;2024-01-25T10:25:16;10.70;;;6.37;;
76708;SDS011;74360;44.410;0.216;2024-01-25T10:30:48;9.50;;;5.53;;
76708;SDS011;74360;44.410;0.216;2024-01-25T10:36:22;9.07;;;5.47;;
76708;SDS011;74360;44.410;0.216;2024-01-25T10:41:54;14.50;;;6.73;;
76708;SDS011;74360;44.410;0.216;2024-01-25T10:47:28;13.33;;;7.37;;
76708;SDS011;74360;44.410;0.216;2024-01-25T10:53:00;8.77;;;5.03;;
76708;SDS011;74360;44.410;0.216;2024-01-25T10:58:35;10.00;;;5.87;;
76708;SDS011;74360;44.410;0.216;2024-01-25T11:04:12;7.33;;;3.93;;
76708;SDS011;74360;44.410;0.216;2024-01-25T11:09:38;10.60;;;6.10;;
76708;SDS011;74360;44.410;0.216;2024-01-25T11:15:10;12.30;;;7.50;;
76708;SDS011;74360;44.410;0.216;2024-01-25T11:20:42;11.53;;;7.13;;
76708;SDS011;74360;44.410;0.216;2024-01-25T11:26:15;13.07;;;7.30;;
76708;SDS011;74360;44.410;0.216;2024-01-25T11:31:47;12.83;;;6.93;;
76708;SDS011;74360;44.410;0.216;2024-01-25T11:37:18;10.63;;;5.53;;
76708;SDS011;74360;44.410;0.216;2024-01-25T11:42:51;8.77;;;4.53;;
76708;SDS011;74360;44.410;0.216;2024-01-25T11:48:27;8.77;;;4.53;;
76708;SDS011;74360;44.410;0.216;2024-01-25T11:53:56;6.80;;;3.87;;
76708;SDS011;74360;44.410;0.216;2024-01-25T11:59:29;9.73;;;3.90;;
76708;SDS011;74360;44.410;0.216;2024-01-25T12:05:02;8.00;;;4.63;;
76708;SDS011;74360;44.410;0.216;2024-01-25T12:10:35;7.57;;;4.07;;
76708;SDS011;74360;44.410;0.216;2024-01-25T12:16:10;6.70;;;3.23;;
76708;SDS011;74360;44.410;0.216;2024-01-25T12:21:43;5.60;;;2.83;;
76708;SDS011;74360;44.410;0.216;2024-01-25T12:27:14;6.70;;;3.10;;
76708;SDS011;74360;44.410;0.216;2024-01-25T12:32:47;5.70;;;3.10;;
76708;SDS011;74360;44.410;0.216;2024-01-25T12:43:53;5.40;;;2.80;;
76708;SDS011;74360;44.410;0.216;2024-01-25T12:49:27;4.70;;;2.07;;
76708;SDS011;74360;44.410;0.216;2024-01-25T12:54:59;5.27;;;2.50;;
76708;SDS011;74360;44.410;0.216;2024-01-25T13:00:33;5.00;;;2.33;;
76708;SDS011;74360;44.410;0.216;2024-01-25T13:11:38;5.33;;;2.40;;
76708;SDS011;74360;44.410;0.216;2024-01-25T13:17:10;5.00;;;2.23;;
76708;SDS011;74360;44.410;0.216;2024-01-25T13:22:44;4.60;;;2.13;;
76708;SDS011;74360;44.410;0.216;2024-01-25T13:28:17;5.10;;;2.43;;
76708;SDS011;74360;44.410;0.216;2024-01-25T13:33:49;4.83;;;2.10;;
76708;SDS011;74360;44.410;0.216;2024-01-25T13:39:23;4.80;;;2.03;;
76708;SDS011;74360;44.410;0.216;2024-01-25T13:44:54;4.97;;;2.17;;
76708;SDS011;74360;44.410;0.216;2024-01-25T13:50:27;4.80;;;1.83;;
76708;SDS011;74360;44.410;0.216;2024-01-25T13:56:01;4.63;;;2.00;;
76708;SDS011;74360;44.410;0.216;2024-01-25T14:01:33;4.47;;;1.80;;
76708;SDS011;74360;44.410;0.216;2024-01-25T14:07:06;4.40;;;1.80;;
76708;SDS011;74360;44.410;0.216;2024-01-25T14:12:38;4.20;;;1.57;;
76708;SDS011;74360;44.410;0.216;2024-01-25T14:18:12;3.67;;;1.43;;
76708;SDS011;74360;44.410;0.216;2024-01-25T14:23:44;4.90;;;1.60;;
76708;SDS011;74360;44.410;0.216;2024-01-25T14:29:15;5.37;;;1.40;;
76708;SDS011;74360;44.410;0.216;2024-01-25T14:34:48;3.23;;;1.23;;
76708;SDS011;74360;44.410;0.216;2024-01-25T14:40:19;3.47;;;1.20;;
76708;SDS011;74360;44.410;0.216;2024-01-25T14:45:53;3.60;;;1.30;;
76708;SDS011;74360;44.410;0.216;2024-01-25T14:51:26;2.80;;;1.20;;
76708;SDS011;74360;44.410;0.216;2024-01-25T14:56:59;4.67;;;1.67;;
76708;SDS011;74360;44.410;0.216;2024-01-25T15:02:32;3.27;;;1.20;;
76708;SDS011;74360;44.410;0.216;2024-01-25T15:08:05;4.23;;;1.67;;
76708;SDS011;74360;44.410;0.216;2024-01-25T15:13:37;4.80;;;1.70;;
76708;SDS011;74360;44.410;0.216;2024-01-25T15:19:10;4.40;;;1.60;;
76708;SDS011;74360;44.410;0.216;2024-01-25T15:24:44;5.20;;;2.50;;
76708;SDS011;74360;44.410;0.216;2024-01-25T15:30:16;4.60;;;1.50;;
76708;SDS011;74360;44.410;0.216;2024-01-25T15:35:48;5.83;;;2.10;;
76708;SDS011;74360;44.410;0.216;2024-01-25T15:41:22;5.37;;;2.00;;
76708;SDS011;74360;44.410;0.216;2024-01-25T15:46:53;5.27;;;2.30;;
76708;SDS011;74360;44.410;0.216;2024-01-25T15:52:24;6.27;;;2.80;;
76708;SDS011;74360;44.410;0.216;2024-01-25T15:57:56;6.43;;;2.97;;
76708;SDS011;74360;44.410;0.216;2024-01-25T16:03:29;7.40;;;3.37;;
76708;SDS011;74360;44.410;0.216;2024-01-25T16:09:02;7.00;;;3.53;;
76708;SDS011;74360;44.410;0.216;2024-01-25T16:14:34;8.60;;;3.97;;
76708;SDS011;74360;44.410;0.216;2024-01-25T16:20:08;8.50;;;4.33;;
76708;SDS011;74360;44.410;0.216;2024-01-25T16:25:41;10.50;;;6.23;;
76708;SDS011;74360;44.410;0.216;2024-01-25T16:31:12;9.43;;;5.47;;
76708;SDS011;74360;44.410;0.216;2024-01-25T16:36:43;13.90;;;6.77;;
76708;SDS011;74360;44.410;0.216;2024-01-25T16:42:15;11.93;;;5.53;;
76708;SDS011;74360;44.410;0.216;2024-01-25T16:47:48;10.07;;;5.67;;
76708;SDS011;74360;44.410;0.216;2024-01-25T16:53:20;13.43;;;5.70;;
76708;SDS011;74360;44.410;0.216;2024-01-25T16:58:51;18.53;;;11.03;;
76708;SDS011;74360;44.410;0.216;2024-01-25T17:04:23;13.73;;;8.50;;
76708;SDS011;74360;44.410;0.216;2024-01-25T17:09:55;11.80;;;7.77;;
76708;SDS011;74360;44.410;0.216;2024-01-25T17:15:28;13.70;;;6.70;;
76708;SDS011;74360;44.410;0.216;2024-01-25T17:21:01;12.77;;;6.73;;
76708;SDS011;74360;44.410;0.216;2024-01-25T17:26:33;20.90;;;12.70;;
76708;SDS011;74360;44.410;0.216;2024-01-25T17:32:06;25.30;;;13.67;;
76708;SDS011;74360;44.410;0.216;2024-01-25T17:37:38;25.97;;;15.63;;
76708;SDS011;74360;44.410;0.216;2024-01-25T17:43:12;29.87;;;17.13;;
76708;SDS011;74360;44.410;0.216;2024-01-25T17:48:43;23.47;;;14.00;;
76708;SDS011;74360;44.410;0.216;2024-01-25T17:54:16;25.13;;;14.93;;
76708;SDS011;74360;44.410;0.216;2024-01-25T17:59:47;20.73;;;12.67;;
76708;SDS011;74360;44.410;0.216;2024-01-25T18:05:21;22.93;;;11.63;;
76708;SDS011;74360;44.410;0.216;2024-01-25T18:10:55;19.30;;;11.73;;
76708;SDS011;74360;44.410;0.216;2024-01-25T18:16:26;20.40;;;11.60;;
76708;SDS011;74360;44.410;0.216;2024-01-25T18:21:59;15.47;;;9.20;;
76708;SDS011;74360;44.410;0.216;2024-01-25T18:27:31;12.73;;;7.00;;
76708;SDS011;74360;44.410;0.216;2024-01-25T18:33:04;12.70;;;7.47;;
76708;SDS011;74360;44.410;0.216;2024-01-25T18:38:36;16.73;;;10.10;;
76708;SDS011;74360;44.410;0.216;2024-01-25T18:44:09;22.33;;;13.53;;
76708;SDS011;74360;44.410;0.216;2024-01-25T18:49:41;18.63;;;11.77;;
76708;SDS011;74360;44.410;0.216;2024-01-25T18:55:15;15.50;;;10.77;;
76708;SDS011;74360;44.410;0.216;2024-01-25T19:00:50;13.90;;;9.13;;
76708;SDS011;74360;44.410;0.216;2024-01-25T19:06:20;16.50;;;9.33;;
76708;SDS011;74360;44.410;0.216;2024-01-25T19:11:53;16.03;;;8.63;;
76708;SDS011;74360;44.410;0.216;2024-01-25T19:17:28;15.97;;;8.87;;
76708;SDS011;74360;44.410;0.216;2024-01-25T19:23:00;19.90;;;10.07;;
76708;SDS011;74360;44.410;0.216;2024-01-25T19:28:34;18.37;;;10.17;;
76708;SDS011;74360;44.410;0.216;2024-01-25T19:34:06;18.03;;;8.47;;
76708;SDS011;74360;44.410;0.216;2024-01-25T19:39:38;22.90;;;9.47;;
76708;SDS011;74360;44.410;0.216;2024-01-25T19:50:42;28.13;;;8.47;;
76708;SDS011;74360;44.410;0.216;2024-01-25T19:56:16;28.83;;;9.00;;
76708;SDS011;74360;44.410;0.216;2024-01-25T20:07:21;27.43;;;9.17;;
76708;SDS011;74360;44.410;0.216;2024-01-25T20:18:27;28.70;;;10.00;;
76708;SDS011;74360;44.410;0.216;2024-01-25T20:24:02;23.70;;;9.63;;
76708;SDS011;74360;44.410;0.216;2024-01-25T20:29:33;25.17;;;8.87;;
76708;SDS011;74360;44.410;0.216;2024-01-25T20:51:43;18.53;;;7.70;;
76708;SDS011;74360;44.410;0.216;2024-01-25T20:57:16;23.50;;;8.50;;
76708;SDS011;74360;44.410;0.216;2024-01-25T21:02:50;24.00;;;8.40;;
76708;SDS011;74360;44.410;0.216;2024-01-25T21:08:27;19.87;;;9.47;;
76708;SDS011;74360;44.410;0.216;2024-01-25T21:13:57;25.13;;;10.50;;
76708;SDS011;74360;44.410;0.216;2024-01-25T21:19:29;26.30;;;9.50;;
76708;SDS011;74360;44.410;0.216;2024-01-25T21:25:01;16.47;;;9.50;;
76708;SDS011;74360;44.410;0.216;2024-01-25T21:30:34;23.50;;;10.20;;
76708;SDS011;74360;44.410;0.216;2024-01-25T21:36:06;22.33;;;10.37;;
76708;SDS011;74360;44.410;0.216;2024-01-25T21:41:39;21.87;;;10.20;;
76708;SDS011;74360;44.410;0.216;2024-01-25T21:47:11;23.17;;;10.83;;
76708;SDS011;74360;44.410;0.216;2024-01-25T21:58:15;25.83;;;10.07;;
76708;SDS011;74360;44.410;0.216;2024-01-25T22:03:48;23.60;;;11.53;;
76708;SDS011;74360;44.410;0.216;2024-01-25T22:09:22;23.30;;;12.13;;
76708;SDS011;74360;44.410;0.216;2024-01-25T22:14:53;28.20;;;12.73;;
76708;SDS011;74360;44.410;0.216;2024-01-25T22:20:25;22.33;;;12.37;;
76708;SDS011;74360;44.410;0.216;2024-01-25T22:25:57;31.30;;;13.63;;
76708;SDS011;74360;44.410;0.216;2024-01-25T22:31:30;36.57;;;18.67;;
76708;SDS011;74360;44.410;0.216;2024-01-25T22:37:03;40.30;;;21.93;;
76708;SDS011;74360;44.410;0.216;2024-01-25T22:42:35;48.17;;;23.97;;
76708;SDS011;74360;44.410;0.216;2024-01-25T22:48:08;40.17;;;22.50;;
76708;SDS011;74360;44.410;0.216;2024-01-25T22:53:40;45.13;;;23.17;;
76708;SDS011;74360;44.410;0.216;2024-01-25T22:59:11;41.07;;;21.00;;
76708;SDS011;74360;44.410;0.216;2024-01-25T23:04:45;43.83;;;23.50;;
76708;SDS011;74360;44.410;0.216;2024-01-25T23:10:19;34.43;;;16.20;;
76708;SDS011;74360;44.410;0.216;2024-01-25T23:15:49;27.57;;;10.40;;
76708;SDS011;74360;44.410;0.216;2024-01-25T23:21:21;23.37;;;9.17;;
76708;SDS011;74360;44.410;0.216;2024-01-25T23:26:54;25.53;;;9.63;;
76708;SDS011;74360;44.410;0.216;2024-01-25T23:32:27;25.73;;;8.73;;
76708;SDS011;74360;44.410;0.216;2024-01-25T23:38:00;17.97;;;8.03;;
76708;SDS011;74360;44.410;0.216;2024-01-25T23:43:32;19.57;;;9.03;;
76708;SDS011;74360;44.410;0.216;2024-01-25T23:49:05;21.13;;;9.50;;
76708;SDS011;74360;44.410;0.216;2024-01-25T23:54:37;16.90;;;8.07;;
